createdAt,value
2023-05-14T00:02:05.203Z,98696.63
2023-05-14T00:04:33.340Z,98692.81
2023-05-14T00:07:01.541Z,98691.63
2023-05-14T00:09:31.240Z,98683.63
2023-05-14T00:11:59.503Z,98695.25
2023-05-14T00:14:27.535Z,98697.38
2023-05-14T00:16:55.898Z,98693.94
2023-05-14T00:19:23.890Z,98687.84
2023-05-14T00:21:51.957Z,98678.78
2023-05-14T00:24:20.029Z,98688.59
2023-05-14T00:26:49.919Z,98690.00
2023-05-14T00:29:18.001Z,98690.47
2023-05-14T00:31:46.170Z,98703.44
2023-05-14T00:34:14.382Z,98692.97
2023-05-14T00:36:42.502Z,98700.31
2023-05-14T00:39:10.676Z,98708.41
2023-05-14T00:41:38.704Z,98694.78
2023-05-14T00:44:08.444Z,98703.56
2023-05-14T00:46:36.768Z,98698.56
2023-05-14T00:49:05.048Z,98696.19
2023-05-14T00:51:33.130Z,98698.47
2023-05-14T00:54:01.352Z,98698.00
2023-05-14T00:56:29.405Z,98706.09
2023-05-14T00:58:57.474Z,98702.59
2023-05-14T01:01:28.735Z,98707.59
2023-05-14T01:03:58.311Z,98710.50
2023-05-14T01:06:32.649Z,98715.28
2023-05-14T01:09:07.208Z,98712.31
2023-05-14T01:11:40.588Z,98717.00
2023-05-14T01:14:15.716Z,98720.63
2023-05-14T01:16:47.409Z,98708.22
2023-05-14T01:19:23.571Z,98707.09
2023-05-14T01:21:53.048Z,98705.38
2023-05-14T01:24:21.087Z,98706.13
2023-05-14T01:26:49.128Z,98704.59
2023-05-14T01:29:22.569Z,98711.56
2023-05-14T01:31:52.400Z,98704.31
2023-05-14T01:34:23.459Z,98696.38
2023-05-14T01:36:54.546Z,98703.34
2023-05-14T01:39:24.145Z,98697.72
2023-05-14T01:41:53.058Z,98689.91
2023-05-14T01:44:22.668Z,98688.75
2023-05-14T01:46:50.814Z,98694.38
2023-05-14T01:49:19.758Z,98697.34
2023-05-14T01:51:47.949Z,98694.03
2023-05-14T01:54:17.487Z,98698.03
2023-05-14T01:56:45.522Z,98684.75
2023-05-14T01:59:13.465Z,98685.06
2023-05-14T02:01:41.644Z,98687.16
2023-05-14T02:04:10.093Z,98690.59
2023-05-14T02:06:38.188Z,98693.38
2023-05-14T02:09:06.342Z,98683.94
2023-05-14T02:11:36.086Z,98687.19
2023-05-14T02:14:04.103Z,98683.00
2023-05-14T02:16:32.378Z,98683.06
2023-05-14T02:19:00.584Z,98680.22
2023-05-14T02:21:28.707Z,98685.38
2023-05-14T02:23:57.222Z,98675.66
2023-05-14T02:26:25.318Z,98677.66
2023-05-14T02:28:54.675Z,98671.88
2023-05-14T02:31:22.840Z,98671.75
2023-05-14T02:33:51.277Z,98665.16
2023-05-14T02:36:19.294Z,98667.56
2023-05-14T02:38:47.256Z,98660.31
2023-05-14T02:41:16.357Z,98665.00
2023-05-14T02:43:44.337Z,98661.88
2023-05-14T02:46:13.719Z,98658.13
2023-05-14T02:48:42.212Z,98661.09
2023-05-14T02:51:10.561Z,98656.22
2023-05-14T02:53:38.605Z,98651.66
2023-05-14T02:56:08.060Z,98647.91
2023-05-14T02:58:36.147Z,98653.75
2023-05-14T03:01:04.194Z,98661.28
2023-05-14T03:03:34.372Z,98652.88
2023-05-14T03:06:02.830Z,98650.03
2023-05-14T03:08:31.091Z,98645.75
2023-05-14T03:10:59.117Z,98650.06
2023-05-14T03:13:27.225Z,98649.56
2023-05-14T03:15:55.886Z,98647.25
2023-05-14T03:18:24.117Z,98650.88
2023-05-14T03:20:53.528Z,98642.59
2023-05-14T03:23:23.167Z,98635.94
2023-05-14T03:25:53.438Z,98638.97
2023-05-14T03:28:21.471Z,98632.97
2023-05-14T03:30:49.579Z,98632.38
2023-05-14T03:33:17.814Z,98632.78
2023-05-14T03:35:45.839Z,98632.09
2023-05-14T03:38:15.348Z,98628.50
2023-05-14T03:40:43.623Z,98626.53
2023-05-14T03:43:11.668Z,98628.72
2023-05-14T03:45:39.998Z,98633.22
2023-05-14T03:48:08.280Z,98631.09
2023-05-14T03:50:36.806Z,98634.03
2023-05-14T03:53:04.852Z,98639.38
2023-05-14T03:55:34.385Z,98637.16
2023-05-14T03:58:02.953Z,98644.59
2023-05-14T04:00:30.944Z,98645.28
2023-05-14T04:02:59.006Z,98641.19
2023-05-14T04:05:27.044Z,98641.94
2023-05-14T04:07:55.286Z,98644.31
2023-05-14T04:10:23.527Z,98632.81
2023-05-14T04:12:53.063Z,98633.88
2023-05-14T04:15:21.164Z,98630.38
2023-05-14T04:17:49.311Z,98633.88
2023-05-14T04:20:17.442Z,98636.41
2023-05-14T04:22:45.792Z,98633.56
2023-05-14T04:25:13.921Z,98635.53
2023-05-14T04:27:41.945Z,98624.22
2023-05-14T04:30:12.212Z,98632.47
2023-05-14T04:32:40.369Z,98629.28
2023-05-14T04:35:10.155Z,98627.13
2023-05-14T04:37:38.259Z,98622.03
2023-05-14T04:40:08.125Z,98627.63
2023-05-14T04:42:36.315Z,98633.28
2023-05-14T04:45:05.302Z,98627.81
2023-05-14T04:47:35.026Z,98637.44
2023-05-14T04:50:04.713Z,98633.53
2023-05-14T04:52:32.816Z,98628.88
2023-05-14T04:55:01.222Z,98641.38
2023-05-14T04:57:29.221Z,98631.38
2023-05-14T04:59:57.355Z,98628.50
2023-05-14T05:02:25.631Z,98626.44
2023-05-14T05:04:55.049Z,98629.28
2023-05-14T05:07:23.088Z,98626.03
2023-05-14T05:09:51.129Z,98628.50
2023-05-14T05:12:19.137Z,98631.03
2023-05-14T05:14:47.139Z,98633.59
2023-05-14T05:17:15.792Z,98630.94
2023-05-14T05:19:44.612Z,98627.13
2023-05-14T05:22:14.217Z,98630.47
2023-05-14T05:24:42.453Z,98619.25
2023-05-14T05:27:10.415Z,98619.00
2023-05-14T05:29:38.688Z,98624.13
2023-05-14T05:32:07.992Z,98623.63
2023-05-14T05:34:36.487Z,98618.47
2023-05-14T05:37:06.098Z,98623.03
2023-05-14T05:39:35.870Z,98616.00
2023-05-14T05:42:04.160Z,98612.72
2023-05-14T05:44:32.318Z,98611.94
2023-05-14T05:47:00.492Z,98602.31
2023-05-14T05:49:28.718Z,98606.13
2023-05-14T05:51:57.053Z,98595.28
2023-05-14T05:54:26.143Z,98604.91
2023-05-14T05:56:55.620Z,98611.38
2023-05-14T05:59:23.701Z,98618.31
2023-05-14T06:01:51.873Z,98609.19
2023-05-14T06:04:20.331Z,98614.28
2023-05-14T06:06:48.453Z,98607.97
2023-05-14T06:09:16.512Z,98608.72
2023-05-14T06:11:44.807Z,98608.72
2023-05-14T06:14:14.197Z,98609.72
2023-05-14T06:16:42.602Z,98608.50
2023-05-14T06:19:11.335Z,98611.50
2023-05-14T06:21:39.511Z,98607.94
2023-05-14T06:24:08.232Z,98602.59
2023-05-14T06:26:36.495Z,98602.38
2023-05-14T06:29:04.618Z,98604.81
2023-05-14T06:31:34.235Z,98593.16
2023-05-14T06:34:02.308Z,98596.69
2023-05-14T06:36:30.561Z,98590.28
2023-05-14T06:38:58.715Z,98591.81
2023-05-14T06:41:26.853Z,98594.53
2023-05-14T06:43:55.350Z,98592.78
2023-05-14T06:46:23.586Z,98590.34
2023-05-14T06:48:53.300Z,98586.06
2023-05-14T06:51:21.449Z,98583.44
2023-05-14T06:53:49.644Z,98586.47
2023-05-14T06:56:17.871Z,98586.97
2023-05-14T06:58:45.900Z,98580.94
2023-05-14T07:01:14.108Z,98590.34
2023-05-14T07:03:42.357Z,98586.97
2023-05-14T07:06:13.534Z,98590.31
2023-05-14T07:08:42.010Z,98594.28
2023-05-14T07:11:10.142Z,98584.38
2023-05-14T07:13:38.281Z,98592.53
2023-05-14T07:16:07.214Z,98583.69
2023-05-14T07:18:35.355Z,98586.44
2023-05-14T07:21:05.059Z,98589.38
2023-05-14T07:23:36.275Z,98588.69
2023-05-14T07:26:05.109Z,98588.25
2023-05-14T07:28:33.246Z,98586.78
2023-05-14T07:31:01.593Z,98598.44
2023-05-14T07:33:29.656Z,98610.72
2023-05-14T07:35:57.900Z,98607.00
2023-05-14T07:38:25.970Z,98605.53
2023-05-14T07:40:55.386Z,98613.38
2023-05-14T07:43:23.381Z,98607.56
2023-05-14T07:45:51.701Z,98610.00
2023-05-14T07:48:19.883Z,98599.91
2023-05-14T07:50:47.874Z,98597.75
2023-05-14T07:53:15.929Z,98593.34
2023-05-14T07:55:45.768Z,98592.50
2023-05-14T07:58:15.135Z,98586.91
2023-05-14T08:00:43.330Z,98576.56
2023-05-14T08:03:11.464Z,98574.31
2023-05-14T08:05:39.542Z,98570.50
2023-05-14T08:08:07.570Z,98566.72
2023-05-14T08:10:37.015Z,98563.84
2023-05-14T08:13:05.330Z,98557.88
2023-05-14T08:15:34.812Z,98559.31
2023-05-14T08:18:03.805Z,98556.28
2023-05-14T08:20:32.010Z,98552.16
2023-05-14T08:23:00.033Z,98552.88
2023-05-14T08:25:28.277Z,98554.75
2023-05-14T08:27:56.335Z,98551.19
2023-05-14T08:30:24.793Z,98550.78
2023-05-14T08:32:54.595Z,98546.06
2023-05-14T08:35:22.763Z,98540.56
2023-05-14T08:37:51.584Z,98534.53
2023-05-14T08:40:19.844Z,98533.28
2023-05-14T08:42:49.163Z,98531.38
2023-05-14T08:45:20.046Z,98530.81
2023-05-14T08:47:50.556Z,98527.97
2023-05-14T08:50:22.921Z,98526.41
2023-05-14T08:52:52.096Z,98532.44
2023-05-14T08:55:20.171Z,98529.22
2023-05-14T08:57:48.278Z,98533.03
2023-05-14T09:00:16.502Z,98530.28
2023-05-14T09:02:46.038Z,98527.41
2023-05-14T09:05:15.033Z,98513.09
2023-05-14T09:07:44.463Z,98515.91
2023-05-14T09:10:12.718Z,98510.66
2023-05-14T09:12:40.922Z,98510.41
2023-05-14T09:15:09.384Z,98506.84
2023-05-14T09:17:37.583Z,98502.97
2023-05-14T09:20:07.908Z,98504.66
2023-05-14T09:22:36.271Z,98500.31
2023-05-14T09:25:07.455Z,98493.56
2023-05-14T09:27:35.563Z,98497.47
2023-05-14T09:30:08.963Z,98497.34
2023-05-14T09:32:38.333Z,98485.31
2023-05-14T09:35:17.741Z,98481.94
2023-05-14T09:37:47.582Z,98491.09
2023-05-14T09:40:18.654Z,98486.41
2023-05-14T09:42:48.269Z,98484.19
2023-05-14T09:45:17.032Z,98484.00
2023-05-14T09:47:46.079Z,98462.03
2023-05-14T09:50:14.381Z,98477.56
2023-05-14T09:52:42.612Z,98474.22
2023-05-14T09:55:11.195Z,98466.91
2023-05-14T09:57:40.874Z,98456.00
2023-05-14T10:00:10.456Z,98453.78
2023-05-14T10:02:41.362Z,98461.84
2023-05-14T10:05:10.552Z,98454.16
2023-05-14T10:07:42.789Z,98454.53
2023-05-14T10:10:16.959Z,98446.03
2023-05-14T10:12:54.050Z,98440.34
2023-05-14T10:15:29.582Z,98439.69
2023-05-14T10:18:01.621Z,98447.66
2023-05-14T10:20:30.675Z,98434.81
2023-05-14T10:22:59.822Z,98423.75
2023-05-14T10:25:28.742Z,98427.63
2023-05-14T10:27:59.013Z,98420.19
2023-05-14T10:30:27.309Z,98415.00
2023-05-14T10:33:09.128Z,98413.63
2023-05-14T10:35:57.242Z,98407.91
2023-05-14T10:38:28.068Z,98394.84
2023-05-14T10:40:58.950Z,98392.19
2023-05-14T10:43:30.907Z,98393.84
2023-05-14T10:45:59.944Z,98382.75
2023-05-14T10:48:28.249Z,98378.97
2023-05-14T10:50:57.818Z,98372.91
2023-05-14T10:53:36.215Z,98367.22
2023-05-14T10:56:06.685Z,98371.16
2023-05-14T10:58:38.709Z,98377.75
2023-05-14T11:01:08.567Z,98367.09
2023-05-14T11:03:42.064Z,98356.50
2023-05-14T11:06:11.505Z,98351.41
2023-05-14T11:08:40.102Z,98361.09
2023-05-14T11:11:08.690Z,98357.34
2023-05-14T11:13:38.522Z,98349.47
2023-05-14T11:18:40.855Z,98339.84
2023-05-14T11:21:09.056Z,98344.13
2023-05-14T11:23:37.620Z,98337.94
2023-05-14T11:26:05.745Z,98324.28
2023-05-14T11:28:34.024Z,98329.75
2023-05-14T11:31:03.497Z,98325.09
2023-05-14T11:33:31.786Z,98330.59
2023-05-14T11:35:59.838Z,98325.78
2023-05-14T11:38:27.922Z,98324.66
2023-05-14T11:41:05.971Z,98325.31
2023-05-14T11:43:39.399Z,98327.31
2023-05-14T11:46:09.016Z,98316.91
2023-05-14T11:48:37.131Z,98311.22
2023-05-14T11:51:06.047Z,98310.91
2023-05-14T11:53:34.106Z,98316.81
2023-05-14T11:56:03.370Z,98310.41
2023-05-14T11:58:33.954Z,98321.72
2023-05-14T12:01:02.134Z,98310.84
2023-05-14T12:03:33.011Z,98308.78
2023-05-14T12:06:03.039Z,98307.06
2023-05-14T12:08:33.180Z,98302.25
2023-05-14T12:11:02.331Z,98296.88
2023-05-14T12:13:31.849Z,98288.66
2023-05-14T12:16:02.224Z,98288.38
2023-05-14T12:18:33.406Z,98277.53
2023-05-14T12:21:04.273Z,98272.63
2023-05-14T12:23:33.329Z,98263.22
2023-05-14T12:26:06.193Z,98254.25
2023-05-14T12:28:37.731Z,98252.31
2023-05-14T12:31:06.714Z,98255.13
2023-05-14T12:33:36.326Z,98248.53
2023-05-14T12:36:20.537Z,98244.38
2023-05-14T12:38:50.845Z,98243.00
2023-05-14T12:41:19.118Z,98239.44
2023-05-14T12:43:50.302Z,98232.75
2023-05-14T12:46:18.421Z,98235.22
2023-05-14T12:48:47.799Z,98237.16
2023-05-14T12:51:16.316Z,98238.06
2023-05-14T12:53:44.482Z,98223.22
2023-05-14T12:56:13.014Z,98230.13
2023-05-14T12:58:41.223Z,98221.91
2023-05-14T13:01:09.582Z,98211.66
2023-05-14T13:03:37.812Z,98218.72
2023-05-14T13:06:07.722Z,98211.03
2023-05-14T13:08:36.690Z,98223.63
2023-05-14T13:11:04.681Z,98221.94
2023-05-14T13:13:32.793Z,98220.16
2023-05-14T13:16:01.100Z,98225.75
2023-05-14T13:18:29.356Z,98223.38
2023-05-14T13:20:57.428Z,98217.53
2023-05-14T13:23:27.265Z,98208.88
2023-05-14T13:25:55.389Z,98207.22
2023-05-14T13:28:23.488Z,98210.19
2023-05-14T13:31:06.472Z,98204.28
2023-05-14T13:33:36.356Z,98204.56
2023-05-14T13:36:04.893Z,98199.34
2023-05-14T13:38:34.421Z,98203.47
2023-05-14T13:41:03.045Z,98194.53
2023-05-14T13:43:31.933Z,98199.38
2023-05-14T13:46:00.227Z,98184.44
2023-05-14T13:48:28.373Z,98198.94
2023-05-14T13:50:56.548Z,98190.00
2023-05-14T13:53:25.627Z,98188.59
2023-05-14T13:55:56.674Z,98170.69
2023-05-14T13:58:25.337Z,98166.09
2023-05-14T14:00:53.905Z,98163.63
2023-05-14T14:03:22.144Z,98167.78
2023-05-14T14:05:50.239Z,98157.34
2023-05-14T14:08:23.834Z,98150.00
2023-05-14T14:10:55.314Z,98148.84
2023-05-14T14:13:24.443Z,98147.50
2023-05-14T14:15:52.865Z,98142.09
2023-05-14T14:18:21.111Z,98142.56
2023-05-14T14:20:49.363Z,98130.50
2023-05-14T14:23:17.486Z,98129.78
2023-05-14T14:25:45.654Z,98122.19
2023-05-14T14:28:15.131Z,98132.31
2023-05-14T14:30:43.882Z,98142.59
2023-05-14T14:33:12.607Z,98129.91
2023-05-14T14:35:40.726Z,98140.31
2023-05-14T14:38:08.739Z,98128.28
2023-05-14T14:40:36.882Z,98117.56
2023-05-14T14:43:04.890Z,98122.41
2023-05-14T14:45:34.403Z,98114.16
2023-05-14T14:48:34.249Z,98106.81
2023-05-14T14:51:02.584Z,98111.28
2023-05-14T14:53:32.303Z,98110.81
2023-05-14T14:56:01.668Z,98102.53
2023-05-14T14:58:31.050Z,98092.03
2023-05-14T15:01:01.819Z,98092.91
2023-05-14T15:03:30.202Z,98087.59
2023-05-14T15:05:58.458Z,98088.22
2023-05-14T15:08:28.031Z,98080.31
2023-05-14T15:10:56.780Z,98081.44
2023-05-14T15:13:25.827Z,98078.25
2023-05-14T15:15:53.962Z,98082.84
2023-05-14T15:18:23.434Z,98074.84
2023-05-14T15:20:52.127Z,98071.81
2023-05-14T15:23:20.313Z,98071.16
2023-05-14T15:25:49.493Z,98070.03
2023-05-14T15:28:17.903Z,98070.53
2023-05-14T15:30:48.416Z,98062.25
2023-05-14T15:33:19.430Z,98065.78
2023-05-14T15:35:49.179Z,98066.19
2023-05-14T15:38:17.253Z,98062.63
2023-05-14T15:40:45.305Z,98054.75
2023-05-14T15:43:13.372Z,98062.84
2023-05-14T15:45:41.412Z,98064.63
2023-05-14T15:48:09.616Z,98057.75
2023-05-14T15:50:38.606Z,98055.97
2023-05-14T15:53:07.968Z,98052.03
2023-05-14T15:55:36.112Z,98050.28
2023-05-14T15:58:04.278Z,98046.06
2023-05-14T16:00:32.412Z,98045.94
2023-05-14T16:04:49.674Z,98033.78
2023-05-14T16:07:17.839Z,98028.84
2023-05-14T16:09:45.902Z,98024.22
2023-05-14T16:12:14.476Z,98013.41
2023-05-14T16:14:42.598Z,98021.97
2023-05-14T16:17:10.696Z,98017.81
2023-05-14T16:19:39.454Z,98012.69
2023-05-14T16:22:09.086Z,98009.22
2023-05-14T16:24:37.353Z,98011.81
2023-05-14T16:27:05.625Z,98011.88
2023-05-14T16:29:33.805Z,98015.44
2023-05-14T16:32:02.065Z,98013.59
2023-05-14T16:34:30.251Z,98008.72
2023-05-14T16:36:58.329Z,98003.66
2023-05-14T16:39:27.861Z,98008.81
2023-05-14T16:41:56.006Z,98001.28
2023-05-14T16:44:24.057Z,97988.00
2023-05-14T16:46:52.479Z,98001.72
2023-05-14T16:49:22.465Z,97993.41
2023-05-14T16:51:50.670Z,97994.00
2023-05-14T16:54:18.817Z,97990.72
2023-05-14T16:56:48.438Z,97991.69
2023-05-14T16:59:16.671Z,97988.91
2023-05-14T17:01:45.246Z,97990.47
2023-05-14T17:04:13.440Z,97989.78
2023-05-14T17:06:41.553Z,97985.72
2023-05-14T17:09:09.875Z,97991.53
2023-05-14T17:11:37.947Z,97978.84
2023-05-14T17:14:07.456Z,97981.16
2023-05-14T17:16:35.963Z,97972.84
2023-05-14T17:19:04.868Z,97965.41
2023-05-14T17:21:32.991Z,97965.41
2023-05-14T17:24:01.058Z,97956.66
2023-05-14T17:26:29.128Z,97952.94
2023-05-14T17:28:57.232Z,97955.03
2023-05-14T17:31:26.850Z,97951.97
2023-05-14T17:33:54.917Z,97949.88
2023-05-14T17:36:23.386Z,97949.03
2023-05-14T17:38:52.569Z,97945.16
2023-05-14T17:41:21.665Z,97946.22
2023-05-14T17:43:52.459Z,97943.91
2023-05-14T17:46:20.811Z,97941.91
2023-05-14T17:48:50.193Z,97939.69
2023-05-14T17:51:18.657Z,97943.88
2023-05-14T17:53:46.712Z,97948.97
2023-05-14T17:56:17.182Z,97940.78
2023-05-14T17:58:45.431Z,97943.38
2023-05-14T18:01:13.548Z,97934.38
2023-05-14T18:03:42.485Z,97937.97
2023-05-14T18:06:12.063Z,97931.38
2023-05-14T18:08:40.079Z,97930.81
2023-05-14T18:11:08.177Z,97927.09
2023-05-14T18:13:36.323Z,97941.69
2023-05-14T18:16:04.695Z,97959.66
2023-05-14T18:18:32.782Z,97954.66
2023-05-14T18:21:01.201Z,97958.06
2023-05-14T18:23:31.523Z,97969.09
2023-05-14T18:26:00.486Z,97979.03
2023-05-14T18:28:29.085Z,97982.97
2023-05-14T18:30:57.237Z,97979.59
2023-05-14T18:33:25.930Z,97991.56
2023-05-14T18:35:54.068Z,97989.34
2023-05-14T18:38:22.266Z,97998.50
2023-05-14T18:40:51.658Z,97997.94
2023-05-14T18:43:20.051Z,98004.41
2023-05-14T18:45:48.531Z,97984.22
2023-05-14T18:48:17.364Z,97989.28
2023-05-14T18:50:45.424Z,97986.09
2023-05-14T18:53:13.541Z,97978.94
2023-05-14T18:55:41.568Z,97974.66
2023-05-14T18:58:11.360Z,97978.94
2023-05-14T19:00:39.497Z,97973.66
2023-05-14T19:03:07.679Z,97960.78
2023-05-14T19:05:35.862Z,97960.94
2023-05-14T19:08:04.072Z,97959.44
2023-05-14T19:10:32.175Z,97978.19
2023-05-14T19:13:00.425Z,97964.88
2023-05-14T19:15:30.127Z,97980.50
2023-05-14T19:17:58.362Z,97981.31
2023-05-14T19:20:26.410Z,97980.13
2023-05-14T19:22:54.466Z,97983.13
2023-05-14T19:25:22.604Z,97982.97
2023-05-14T19:27:53.642Z,97988.41
2023-05-14T19:30:22.909Z,97990.69
2023-05-14T19:32:53.300Z,97999.22
2023-05-14T19:35:21.415Z,98004.47
2023-05-14T19:37:49.406Z,98000.00
2023-05-14T19:40:17.754Z,97997.19
2023-05-14T19:42:45.909Z,98004.31
2023-05-14T19:45:14.067Z,98004.31
2023-05-14T19:47:42.928Z,98005.63
2023-05-14T19:50:12.608Z,98009.69
2023-05-14T19:52:40.747Z,97998.75
2023-05-14T19:55:09.375Z,97997.03
2023-05-14T19:57:38.926Z,97996.44
2023-05-14T20:00:09.426Z,98003.59
2023-05-14T20:02:42.156Z,98007.63
2023-05-14T20:05:12.144Z,98007.13
2023-05-14T20:07:40.611Z,98002.63
2023-05-14T20:10:09.667Z,98000.34
2023-05-14T20:12:37.748Z,97999.78
2023-05-14T20:15:06.600Z,97992.97
2023-05-14T20:17:34.694Z,97990.56
2023-05-14T20:20:03.070Z,97982.59
2023-05-14T20:22:32.447Z,97980.31
2023-05-14T20:25:00.485Z,97977.59
2023-05-14T20:27:28.654Z,97969.75
2023-05-14T20:29:56.781Z,97972.34
2023-05-14T20:32:25.550Z,97960.41
2023-05-14T20:34:53.558Z,97958.22
2023-05-14T20:37:21.683Z,97950.03
2023-05-14T20:39:51.283Z,97941.66
2023-05-14T20:42:19.401Z,97937.34
2023-05-14T20:44:48.499Z,97922.13
2023-05-14T20:47:21.562Z,97923.81
2023-05-14T20:49:49.632Z,97919.88
2023-05-14T20:52:18.553Z,97906.22
2023-05-14T20:54:46.748Z,97913.28
2023-05-14T20:57:16.552Z,97902.31
2023-05-14T20:59:44.789Z,97896.78
2023-05-14T21:02:13.270Z,97894.09
2023-05-14T21:04:41.532Z,97889.50
2023-05-14T21:07:09.856Z,97877.84
2023-05-14T21:09:38.468Z,97872.47
2023-05-14T21:12:07.379Z,97856.75
2023-05-14T21:14:37.019Z,97848.56
2023-05-14T21:17:05.246Z,97840.09
2023-05-14T21:19:33.332Z,97840.44
2023-05-14T21:22:01.350Z,97830.56
2023-05-14T21:24:29.427Z,97824.78
2023-05-14T21:26:57.584Z,97818.97
2023-05-14T21:29:25.699Z,97813.59
2023-05-14T21:31:55.140Z,97801.19
2023-05-14T21:34:23.235Z,97809.00
2023-05-14T21:36:51.401Z,97809.22
2023-05-14T21:39:20.069Z,97804.50
2023-05-14T21:41:48.067Z,97799.34
2023-05-14T21:44:16.120Z,97803.56
2023-05-14T21:46:44.255Z,97787.88
2023-05-14T21:49:13.707Z,97788.97
2023-05-14T21:51:42.847Z,97790.66
2023-05-14T21:54:10.952Z,97792.16
2023-05-14T21:56:39.047Z,97788.47
2023-05-14T21:59:07.085Z,97773.47
2023-05-14T22:02:00.712Z,97775.16
2023-05-14T22:04:28.929Z,97771.06
2023-05-14T22:06:57.368Z,97778.81
2023-05-14T22:09:25.826Z,97776.38
2023-05-14T22:11:53.880Z,97779.03
2023-05-14T22:14:21.922Z,97773.06
2023-05-14T22:16:50.309Z,97768.72
2023-05-14T22:19:18.696Z,97755.34
2023-05-14T22:21:48.166Z,97744.00
2023-05-14T22:24:16.182Z,97751.09
2023-05-14T22:26:44.519Z,97738.16
2023-05-14T22:29:12.738Z,97734.31
2023-05-14T22:31:40.850Z,97713.63
2023-05-14T22:34:09.349Z,97714.31
2023-05-14T22:36:37.412Z,97718.25
2023-05-14T22:39:06.916Z,97713.06
2023-05-14T22:41:34.918Z,97711.53
2023-05-14T22:44:03.000Z,97723.66
2023-05-14T22:46:31.247Z,97724.53
2023-05-14T22:49:00.154Z,97735.91
2023-05-14T22:51:28.235Z,97738.78
2023-05-14T22:53:56.311Z,97735.44
2023-05-14T22:56:25.844Z,97725.69
2023-05-14T22:58:54.008Z,97720.78
2023-05-14T23:01:22.240Z,97721.72
2023-05-14T23:03:50.485Z,97717.78
2023-05-14T23:06:18.512Z,97715.63
2023-05-14T23:08:46.633Z,97719.38
2023-05-14T23:11:16.035Z,97711.53
2023-05-14T23:13:45.420Z,97714.34
2023-05-14T23:16:13.556Z,97717.97
2023-05-14T23:18:41.842Z,97717.03
2023-05-14T23:21:10.118Z,97723.56
2023-05-14T23:23:38.153Z,97717.34
2023-05-14T23:26:06.478Z,97710.16
2023-05-14T23:28:34.552Z,97704.88
2023-05-14T23:31:04.039Z,97694.94
2023-05-14T23:33:32.149Z,97689.69
2023-05-14T23:36:00.347Z,97674.47
2023-05-14T23:38:28.539Z,97668.69
2023-05-14T23:40:56.608Z,97670.28
2023-05-14T23:43:24.782Z,97667.19
2023-05-14T23:45:52.935Z,97661.38
2023-05-14T23:48:22.347Z,97651.66
2023-05-14T23:50:50.898Z,97654.53
2023-05-14T23:53:18.974Z,97650.34
2023-05-14T23:55:47.064Z,97649.09
2023-05-14T23:58:15.139Z,97652.94
